Time,TemperatureF,DewpointF,PressureIn,WindDirection,WindDirectionDegrees,WindSpeedMPH,WindSpeedGustMPH,Humidity,HourlyPrecipIn,Conditions,Clouds,dailyrainin,SoftwareType,DateUTC
2013-01-03 00:03:00,25.0,15.0,30.21,West,270,0.0,0.0,54,0.00,,,0.00,fowsr,2013-01-03 05:03:00,
2013-01-03 00:10:00,25.0,15.0,30.21,SW,225,0.0,1.6,54,0.00,,,0.00,fowsr,2013-01-03 05:10:00,
2013-01-03 00:15:00,24.8,14.8,30.20,West,270,1.6,3.1,54,0.00,,,0.00,fowsr,2013-01-03 05:15:00,
2013-01-03 00:20:00,24.8,14.8,30.21,SW,225,1.6,3.1,54,0.00,,,0.00,fowsr,2013-01-03 05:20:00,
2013-01-03 00:25:00,25.0,15.0,30.21,West,270,1.6,2.2,54,0.00,,,0.00,fowsr,2013-01-03 05:25:00,
2013-01-03 00:30:00,24.8,14.8,30.21,West,270,0.7,1.6,54,0.00,,,0.00,fowsr,2013-01-03 05:30:00,
2013-01-03 00:35:00,24.8,14.8,30.20,SW,225,0.7,1.6,54,0.00,,,0.00,fowsr,2013-01-03 05:35:00,
2013-01-03 00:40:00,24.8,14.8,30.21,SW,225,0.7,2.2,54,0.00,,,0.00,fowsr,2013-01-03 05:40:00,
2013-01-03 00:45:00,24.8,14.8,30.21,West,270,0.7,2.2,54,0.00,,,0.00,fowsr,2013-01-03 05:45:00,
2013-01-03 00:50:00,24.8,14.8,30.21,SW,225,0.7,2.2,54,0.00,,,0.00,fowsr,2013-01-03 05:50:00,
2013-01-03 00:55:00,24.8,14.8,30.20,West,270,0.7,3.1,54,0.00,,,0.00,fowsr,2013-01-03 05:55:00,
2013-01-03 01:00:00,24.8,14.8,30.21,West,270,1.6,3.1,54,0.00,,,0.00,fowsr,2013-01-03 06:00:00,
2013-01-03 01:05:00,24.8,14.8,30.21,West,270,1.6,3.1,54,0.00,,,0.00,fowsr,2013-01-03 06:05:00,
2013-01-03 01:10:00,24.8,14.8,30.20,West,270,1.6,2.2,54,0.00,,,0.00,fowsr,2013-01-03 06:10:00,
2013-01-03 01:15:00,24.8,14.8,30.21,West,270,1.6,2.2,54,0.00,,,0.00,fowsr,2013-01-03 06:15:00,
2013-01-03 01:20:00,24.8,14.8,30.21,West,270,0.7,2.2,54,0.00,,,0.00,fowsr,2013-01-03 06:20:00,
2013-01-03 01:30:00,24.8,14.8,30.20,West,270,0.7,1.6,54,0.00,,,0.00,fowsr,2013-01-03 06:30:00,
2013-01-03 01:35:00,24.8,14.8,30.20,West,270,0.7,1.6,54,0.00,,,0.00,fowsr,2013-01-03 06:35:00,
2013-01-03 01:40:00,24.8,14.8,30.20,West,270,0.0,0.0,54,0.00,,,0.00,fowsr,2013-01-03 06:40:00,
2013-01-03 01:45:00,24.8,14.8,30.20,West,270,0.7,1.6,54,0.00,,,0.00,fowsr,2013-01-03 06:45:00,
2013-01-03 01:50:00,24.8,14.8,30.20,West,270,0.7,1.6,54,0.00,,,0.00,fowsr,2013-01-03 06:50:00,
2013-01-03 01:55:00,24.8,14.8,30.21,West,270,1.6,2.2,54,0.00,,,0.00,fowsr,2013-01-03 06:55:00,
2013-01-03 02:00:00,24.8,14.8,30.21,NW,315,0.0,0.7,54,0.00,,,0.00,fowsr,2013-01-03 07:00:00,
2013-01-03 02:05:00,25.0,15.0,30.22,SW,225,0.0,1.6,54,0.00,,,0.00,fowsr,2013-01-03 07:05:00,
2013-01-03 02:10:00,25.0,15.0,30.22,West,270,0.7,1.6,54,0.00,,,0.00,fowsr,2013-01-03 07:10:00,
2013-01-03 02:15:00,25.0,15.0,30.22,West,270,0.7,1.6,54,0.00,,,0.00,fowsr,2013-01-03 07:15:00,
2013-01-03 02:20:00,25.2,15.2,30.22,SW,225,0.0,0.7,54,0.00,,,0.00,fowsr,2013-01-03 07:20:00,
2013-01-03 02:25:00,25.2,14.9,30.21,SE,135,0.7,1.6,53,0.00,,,0.00,fowsr,2013-01-03 07:25:00,
2013-01-03 02:30:00,25.2,15.2,30.22,SW,225,0.7,1.6,54,0.00,,,0.00,fowsr,2013-01-03 07:30:00,
2013-01-03 02:35:00,25.2,15.2,30.21,SE,135,0.7,1.6,54,0.00,,,0.00,fowsr,2013-01-03 07:35:00,
2013-01-03 02:40:00,25.2,15.2,30.22,SE,135,0.0,0.7,54,0.00,,,0.00,fowsr,2013-01-03 07:40:00,
2013-01-03 02:50:00,25.0,14.7,30.22,SW,225,0.0,0.7,53,0.00,,,0.00,fowsr,2013-01-03 07:50:00,
2013-01-03 02:55:00,25.0,14.7,30.21,SW,225,0.0,0.0,53,0.00,,,0.00,fowsr,2013-01-03 07:55:00,
2013-01-03 03:00:00,25.0,15.0,30.21,SW,225,0.0,0.0,54,0.00,,,0.00,fowsr,2013-01-03 08:00:00,
2013-01-03 03:05:00,25.0,15.0,30.21,SW,225,0.0,0.0,54,0.00,,,0.00,fowsr,2013-01-03 08:05:00,
2013-01-03 03:10:00,25.0,14.7,30.20,SE,135,0.0,0.0,53,0.00,,,0.00,fowsr,2013-01-03 08:10:00,
2013-01-03 03:15:00,24.8,14.8,30.20,South,180,0.0,0.7,54,0.00,,,0.00,fowsr,2013-01-03 08:15:00,
2013-01-03 03:20:00,24.8,14.8,30.21,NE,45,0.0,0.7,54,0.00,,,0.00,fowsr,2013-01-03 08:20:00,
2013-01-03 03:25:00,24.8,14.8,30.20,South,180,0.0,0.0,54,0.00,,,0.00,fowsr,2013-01-03 08:25:00,
2013-01-03 03:30:00,24.8,14.8,30.20,SE,135,0.0,0.7,54,0.00,,,0.00,fowsr,2013-01-03 08:30:00,
2013-01-03 03:35:00,24.6,15.0,30.20,North,0,0.0,0.7,55,0.00,,,0.00,fowsr,2013-01-03 08:35:00,
2013-01-03 03:40:00,24.6,15.0,30.20,SW,225,0.0,0.7,55,0.00,,,0.00,fowsr,2013-01-03 08:40:00,
2013-01-03 03:45:00,24.4,14.8,30.20,NW,315,0.0,0.7,55,0.00,,,0.00,fowsr,2013-01-03 08:45:00,
2013-01-03 03:50:00,24.3,14.6,30.20,SW,225,0.7,1.6,55,0.00,,,0.00,fowsr,2013-01-03 08:50:00,
2013-01-03 03:55:00,24.3,14.6,30.20,SW,225,0.0,0.0,55,0.00,,,0.00,fowsr,2013-01-03 08:55:00,
2013-01-03 04:00:00,23.9,14.3,30.20,NW,315,0.0,0.0,55,0.00,,,0.00,fowsr,2013-01-03 09:00:00,
2013-01-03 04:05:00,23.7,14.1,30.20,NW,315,0.0,0.0,55,0.00,,,0.00,fowsr,2013-01-03 09:05:00,
2013-01-03 04:10:00,23.5,14.0,30.20,SW,225,0.0,0.0,55,0.00,,,0.00,fowsr,2013-01-03 09:10:00,
2013-01-03 04:15:00,23.5,14.0,30.19,SW,225,0.0,0.0,55,0.00,,,0.00,fowsr,2013-01-03 09:15:00,
2013-01-03 04:20:00,23.4,14.1,30.20,SW,225,0.0,0.0,56,0.00,,,0.00,fowsr,2013-01-03 09:20:00,
2013-01-03 04:25:00,23.4,14.1,30.20,SE,135,0.7,2.2,56,0.00,,,0.00,fowsr,2013-01-03 09:25:00,
2013-01-03 04:30:00,23.4,14.1,30.20,NE,45,0.0,0.0,56,0.00,,,0.00,fowsr,2013-01-03 09:30:00,
2013-01-03 04:35:00,23.2,13.9,30.20,NE,45,0.0,0.0,56,0.00,,,0.00,fowsr,2013-01-03 09:35:00,
2013-01-03 04:40:00,23.2,13.9,30.20,SW,225,0.0,0.0,56,0.00,,,0.00,fowsr,2013-01-03 09:40:00,
2013-01-03 04:45:00,23.0,13.7,30.20,SW,225,0.0,0.0,56,0.00,,,0.00,fowsr,2013-01-03 09:45:00,
2013-01-03 04:50:00,23.0,13.7,30.20,SW,225,0.0,0.0,56,0.00,,,0.00,fowsr,2013-01-03 09:50:00,
2013-01-03 04:55:00,22.8,14.1,30.20,NE,45,0.0,0.0,58,0.00,,,0.00,fowsr,2013-01-03 09:55:00,
2013-01-03 05:00:00,22.8,14.1,30.20,NE,45,0.0,0.0,58,0.00,,,0.00,fowsr,2013-01-03 10:00:00,
2013-01-03 05:05:00,22.8,14.1,30.20,NE,45,0.0,0.0,58,0.00,,,0.00,fowsr,2013-01-03 10:05:00,
2013-01-03 05:10:00,22.6,13.9,30.20,South,180,0.0,0.0,58,0.00,,,0.00,fowsr,2013-01-03 10:10:00,
2013-01-03 05:15:00,22.5,14.0,30.20,South,180,0.0,0.0,59,0.00,,,0.00,fowsr,2013-01-03 10:15:00,
2013-01-03 05:20:00,22.5,14.0,30.20,South,180,0.0,0.0,59,0.00,,,0.00,fowsr,2013-01-03 10:20:00,
2013-01-03 05:25:00,22.5,14.0,30.20,South,180,0.0,0.0,59,0.00,,,0.00,fowsr,2013-01-03 10:25:00,
2013-01-03 05:30:00,22.3,13.9,30.20,South,180,0.0,0.0,59,0.00,,,0.00,fowsr,2013-01-03 10:30:00,
2013-01-03 05:35:00,22.1,13.7,30.20,SW,225,0.0,0.0,59,0.00,,,0.00,fowsr,2013-01-03 10:35:00,
2013-01-03 05:40:00,22.1,14.0,30.20,SW,225,0.0,0.7,60,0.00,,,0.00,fowsr,2013-01-03 10:40:00,
2013-01-03 05:45:00,22.3,14.1,30.20,West,270,0.7,1.6,60,0.00,,,0.00,fowsr,2013-01-03 10:45:00,
2013-01-03 05:50:00,22.5,14.3,30.20,West,270,0.7,1.6,60,0.00,,,0.00,fowsr,2013-01-03 10:50:00,
2013-01-03 05:55:00,22.5,14.3,30.20,West,270,0.7,1.6,60,0.00,,,0.00,fowsr,2013-01-03 10:55:00,
2013-01-03 06:00:00,22.6,14.2,30.20,SW,225,0.7,1.6,59,0.00,,,0.00,fowsr,2013-01-03 11:00:00,
2013-01-03 06:05:00,22.6,14.2,30.20,West,270,0.7,2.2,59,0.00,,,0.00,fowsr,2013-01-03 11:05:00,
2013-01-03 06:15:00,22.8,14.4,30.20,SW,225,0.0,0.7,59,0.00,,,0.00,fowsr,2013-01-03 11:15:00,
2013-01-03 06:20:00,22.8,14.4,30.20,West,270,0.7,1.6,59,0.00,,,0.00,fowsr,2013-01-03 11:20:00,
2013-01-03 06:25:00,22.8,14.4,30.19,South,180,0.0,0.0,59,0.00,,,0.00,fowsr,2013-01-03 11:25:00,
2013-01-03 06:30:00,22.8,14.4,30.19,West,270,0.0,0.0,59,0.00,,,0.00,fowsr,2013-01-03 11:30:00,
2013-01-03 06:35:00,22.6,13.9,30.20,West,270,0.0,0.0,58,0.00,,,0.00,fowsr,2013-01-03 11:35:00,
2013-01-03 06:45:00,22.5,14.0,30.20,West,270,0.0,0.7,59,0.00,,,0.00,fowsr,2013-01-03 11:45:00,
2013-01-03 06:50:00,22.5,14.0,30.20,West,270,0.0,0.0,59,0.00,,,0.00,fowsr,2013-01-03 11:50:00,
2013-01-03 06:55:00,22.3,13.9,30.20,West,270,0.0,0.7,59,0.00,,,0.00,fowsr,2013-01-03 11:55:00,
2013-01-03 07:00:00,22.3,13.9,30.20,SW,225,0.0,0.7,59,0.00,,,0.00,fowsr,2013-01-03 12:00:00,
2013-01-03 07:10:00,22.1,13.7,30.20,SW,225,0.0,0.0,59,0.00,,,0.00,fowsr,2013-01-03 12:10:00,
2013-01-03 07:15:00,21.9,13.5,30.20,SW,225,0.0,0.0,59,0.00,,,0.00,fowsr,2013-01-03 12:15:00,
2013-01-03 07:20:00,21.9,13.5,30.20,SW,225,0.0,0.0,59,0.00,,,0.00,fowsr,2013-01-03 12:20:00,
2013-01-03 07:25:00,21.7,13.4,30.20,West,270,0.0,0.7,59,0.00,,,0.00,fowsr,2013-01-03 12:25:00,
2013-01-03 07:30:00,21.7,13.6,30.20,West,270,0.0,0.7,60,0.00,,,0.00,fowsr,2013-01-03 12:30:00,
2013-01-03 07:35:00,21.7,13.6,30.20,West,270,0.7,1.6,60,0.00,,,0.00,fowsr,2013-01-03 12:35:00,
2013-01-03 07:40:00,21.7,13.6,30.21,West,270,0.0,0.7,60,0.00,,,0.00,fowsr,2013-01-03 12:40:00,
2013-01-03 07:45:00,21.7,13.6,30.20,SW,225,0.0,0.0,60,0.00,,,0.00,fowsr,2013-01-03 12:45:00,
2013-01-03 07:50:00,21.7,13.6,30.20,SW,225,0.0,0.0,60,0.00,,,0.00,fowsr,2013-01-03 12:50:00,
2013-01-03 07:55:00,21.9,13.8,30.20,West,270,0.0,0.0,60,0.00,,,0.00,fowsr,2013-01-03 12:55:00,
2013-01-03 08:00:00,22.1,14.2,30.20,West,270,0.7,1.6,61,0.00,,,0.00,fowsr,2013-01-03 13:00:00,
2013-01-03 08:10:00,22.3,14.4,30.21,SW,225,1.6,2.2,61,0.00,,,0.00,fowsr,2013-01-03 13:10:00,
2013-01-03 08:15:00,22.5,14.6,30.21,West,270,1.6,2.2,61,0.00,,,0.00,fowsr,2013-01-03 13:15:00,
2013-01-03 08:20:00,22.6,14.7,30.21,West,270,1.6,2.2,61,0.00,,,0.00,fowsr,2013-01-03 13:20:00,
2013-01-03 08:25:00,22.8,14.6,30.20,West,270,0.7,1.6,60,0.00,,,0.00,fowsr,2013-01-03 13:25:00,
2013-01-03 08:30:00,23.2,14.7,30.21,WSW,247,1.6,2.2,59,0.00,,,0.00,fowsr,2013-01-03 13:30:00,
2013-01-03 08:35:00,23.4,14.9,30.21,West,270,1.6,2.2,59,0.00,,,0.00,fowsr,2013-01-03 13:35:00,
2013-01-03 08:40:00,23.5,15.1,30.21,SW,225,1.6,3.1,59,0.00,,,0.00,fowsr,2013-01-03 13:40:00,
2013-01-03 08:45:00,23.9,15.4,30.21,SW,225,1.6,2.2,59,0.00,,,0.00,fowsr,2013-01-03 13:45:00,
2013-01-03 08:50:00,24.1,15.3,30.21,SSW,202,2.2,3.1,58,0.00,,,0.00,fowsr,2013-01-03 13:50:00,
2013-01-03 08:55:00,24.4,15.6,30.22,SW,225,1.6,2.2,58,0.00,,,0.00,fowsr,2013-01-03 13:55:00,
2013-01-03 09:00:00,24.8,15.4,30.21,NW,315,1.6,2.2,56,0.00,,,0.00,fowsr,2013-01-03 14:00:00,
2013-01-03 09:05:00,25.2,15.8,30.22,West,270,1.6,3.1,56,0.00,,,0.00,fowsr,2013-01-03 14:05:00,
2013-01-03 09:10:00,25.5,15.8,30.22,West,270,1.6,2.2,55,0.00,,,0.00,fowsr,2013-01-03 14:10:00,
2013-01-03 09:15:00,25.9,16.1,30.21,West,270,0.7,2.2,55,0.00,,,0.00,fowsr,2013-01-03 14:15:00,
2013-01-03 09:20:00,26.2,16.5,30.22,West,270,2.2,3.1,55,0.00,,,0.00,fowsr,2013-01-03 14:20:00,
2013-01-03 09:25:00,26.6,16.2,30.22,West,270,1.6,2.2,53,0.00,,,0.00,fowsr,2013-01-03 14:25:00,
2013-01-03 09:30:00,26.8,16.1,30.22,NE,45,0.7,2.2,52,0.00,,,0.00,fowsr,2013-01-03 14:30:00,
2013-01-03 09:35:00,26.8,16.1,30.22,SW,225,1.6,2.2,52,0.00,,,0.00,fowsr,2013-01-03 14:35:00,
2013-01-03 09:40:00,27.0,16.3,30.22,NW,315,0.7,1.6,52,0.00,,,0.00,fowsr,2013-01-03 14:40:00,
2013-01-03 09:45:00,27.1,16.1,30.22,WSW,247,2.2,3.1,51,0.00,,,0.00,fowsr,2013-01-03 14:45:00,
2013-01-03 09:50:00,27.3,16.3,30.22,West,270,1.6,2.2,51,0.00,,,0.00,fowsr,2013-01-03 14:50:00,
2013-01-03 09:55:00,27.7,16.6,30.22,West,270,2.2,3.8,51,0.00,,,0.00,fowsr,2013-01-03 14:55:00,
2013-01-03 10:00:00,27.7,16.3,30.22,West,270,1.6,2.2,50,0.00,,,0.00,fowsr,2013-01-03 15:00:00,
2013-01-03 10:05:00,27.9,16.5,30.22,West,270,1.6,3.1,50,0.00,,,0.00,fowsr,2013-01-03 15:05:00,
2013-01-03 10:10:00,28.2,17.1,30.22,West,270,0.7,1.6,51,0.00,,,0.00,fowsr,2013-01-03 15:10:00,
2013-01-03 10:15:00,28.6,18.6,30.22,SW,225,1.6,3.8,55,0.00,,,0.00,fowsr,2013-01-03 15:15:00,
2013-01-03 10:20:00,28.6,18.3,30.22,SW,225,0.7,2.2,54,0.00,,,0.00,fowsr,2013-01-03 15:20:00,
2013-01-03 10:25:00,28.9,18.7,30.22,West,270,0.7,1.6,54,0.00,,,0.00,fowsr,2013-01-03 15:25:00,
2013-01-03 10:30:00,29.1,18.8,30.21,SW,225,1.6,2.2,54,0.00,,,0.00,fowsr,2013-01-03 15:30:00,
2013-01-03 10:35:00,29.1,18.5,30.21,South,180,1.6,2.2,53,0.00,,,0.00,fowsr,2013-01-03 15:35:00,
2013-01-03 10:40:00,29.3,18.4,30.20,SW,225,0.7,1.6,52,0.00,,,0.00,fowsr,2013-01-03 15:40:00,
2013-01-03 10:45:00,29.1,17.9,30.20,SW,225,1.6,3.1,51,0.00,,,0.00,fowsr,2013-01-03 15:45:00,
2013-01-03 10:55:00,29.7,18.7,30.20,South,180,1.6,2.2,52,0.00,,,0.00,fowsr,2013-01-03 15:55:00,
2013-01-03 11:00:00,29.8,18.6,30.19,SW,225,1.6,2.2,51,0.00,,,0.00,fowsr,2013-01-03 16:00:00,
2013-01-03 11:05:00,29.8,18.6,30.19,South,180,0.7,2.2,51,0.00,,,0.00,fowsr,2013-01-03 16:05:00,
2013-01-03 11:10:00,29.8,18.3,30.19,West,270,1.6,3.1,50,0.00,,,0.00,fowsr,2013-01-03 16:10:00,
2013-01-03 11:15:00,29.8,18.3,30.19,SW,225,0.7,2.2,50,0.00,,,0.00,fowsr,2013-01-03 16:15:00,
2013-01-03 11:20:00,29.8,18.3,30.19,SW,225,0.7,2.2,50,0.00,,,0.00,fowsr,2013-01-03 16:20:00,
2013-01-03 11:25:00,30.4,18.4,30.18,WSW,247,0.7,1.6,49,0.00,,,0.00,fowsr,2013-01-03 16:25:00,
2013-01-03 11:30:00,30.7,18.8,30.18,West,270,0.7,1.6,49,0.00,,,0.00,fowsr,2013-01-03 16:30:00,
2013-01-03 11:35:00,31.1,19.1,30.17,West,270,2.2,3.1,49,0.00,,,0.00,fowsr,2013-01-03 16:35:00,
2013-01-03 11:40:00,30.9,18.6,30.17,NW,315,2.2,4.5,48,0.00,,,0.00,fowsr,2013-01-03 16:40:00,
2013-01-03 11:45:00,31.1,18.8,30.17,SW,225,2.2,3.1,48,0.00,,,0.00,fowsr,2013-01-03 16:45:00,
2013-01-03 11:50:00,31.1,18.4,30.17,WSW,247,2.2,3.8,47,0.00,,,0.00,fowsr,2013-01-03 16:50:00,
2013-01-03 11:55:00,31.1,18.4,30.16,West,270,2.2,3.1,47,0.00,,,0.00,fowsr,2013-01-03 16:55:00,
2013-01-03 12:00:00,30.9,18.3,30.16,NW,315,0.7,2.2,47,0.00,,,0.00,fowsr,2013-01-03 17:00:00,
2013-01-03 12:05:00,30.7,17.8,30.16,SW,225,1.6,3.8,46,0.00,,,0.00,fowsr,2013-01-03 17:05:00,
2013-01-03 12:10:00,30.9,18.3,30.16,WSW,247,0.7,3.1,47,0.00,,,0.00,fowsr,2013-01-03 17:10:00,
2013-01-03 12:15:00,31.1,18.4,30.16,NW,315,0.7,2.2,47,0.00,,,0.00,fowsr,2013-01-03 17:15:00,
2013-01-03 12:20:00,31.3,18.6,30.16,SW,225,0.7,1.6,47,0.00,,,0.00,fowsr,2013-01-03 17:20:00,
2013-01-03 12:25:00,31.5,18.8,30.16,West,270,1.6,3.1,47,0.00,,,0.00,fowsr,2013-01-03 17:25:00,
2013-01-03 12:30:00,31.6,18.9,30.15,West,270,1.6,3.1,47,0.00,,,0.00,fowsr,2013-01-03 17:30:00,
2013-01-03 12:35:00,31.5,18.8,30.15,West,270,1.6,3.1,47,0.00,,,0.00,fowsr,2013-01-03 17:35:00,
2013-01-03 12:40:00,31.5,18.8,30.15,West,270,1.6,2.2,47,0.00,,,0.00,fowsr,2013-01-03 17:40:00,
2013-01-03 12:45:00,32.2,19.1,30.14,SW,225,1.6,2.2,46,0.00,,,0.00,fowsr,2013-01-03 17:45:00,
2013-01-03 12:55:00,32.5,19.0,30.14,West,270,3.1,5.4,45,0.00,,,0.00,fowsr,2013-01-03 17:55:00,
2013-01-03 13:00:00,32.4,18.9,30.14,West,270,3.8,5.4,45,0.00,,,0.00,fowsr,2013-01-03 18:00:00,
2013-01-03 13:05:00,32.4,18.9,30.13,West,270,3.8,5.4,45,0.00,,,0.00,fowsr,2013-01-03 18:05:00,
2013-01-03 13:10:00,32.2,18.7,30.13,West,270,1.6,3.1,45,0.00,,,0.00,fowsr,2013-01-03 18:10:00,
2013-01-03 13:15:00,32.2,18.4,30.13,West,270,3.1,6.0,44,0.00,,,0.00,fowsr,2013-01-03 18:15:00,
2013-01-03 13:20:00,32.7,18.5,30.13,West,270,3.1,6.0,43,0.00,,,0.00,fowsr,2013-01-03 18:20:00,
2013-01-03 13:25:00,32.9,18.6,30.13,NW,315,4.5,7.6,43,0.00,,,0.00,fowsr,2013-01-03 18:25:00,
2013-01-03 13:30:00,32.7,18.5,30.13,West,270,0.7,2.2,43,0.00,,,0.00,fowsr,2013-01-03 18:30:00,
2013-01-03 13:35:00,32.5,18.3,30.13,WSW,247,3.8,5.4,43,0.00,,,0.00,fowsr,2013-01-03 18:35:00,
2013-01-03 13:40:00,32.2,18.0,30.12,East,90,2.2,4.5,43,0.00,,,0.00,fowsr,2013-01-03 18:40:00,
2013-01-03 13:45:00,32.5,18.3,30.12,SW,225,2.2,3.8,43,0.00,,,0.00,fowsr,2013-01-03 18:45:00,
2013-01-03 13:50:00,32.5,18.3,30.12,North,0,3.1,4.5,43,0.00,,,0.00,fowsr,2013-01-03 18:50:00,
2013-01-03 13:55:00,32.4,18.2,30.12,West,270,0.7,2.2,43,0.00,,,0.00,fowsr,2013-01-03 18:55:00,
2013-01-03 14:00:00,32.2,18.0,30.12,SW,225,3.1,4.5,43,0.00,,,0.00,fowsr,2013-01-03 19:00:00,
2013-01-03 14:05:00,32.0,17.8,30.12,West,270,2.2,3.1,43,0.00,,,0.00,fowsr,2013-01-03 19:05:00,
2013-01-03 14:10:00,31.6,17.9,30.12,West,270,2.2,4.5,44,0.00,,,0.00,fowsr,2013-01-03 19:10:00,
2013-01-03 14:15:00,31.6,17.9,30.12,West,270,3.1,4.5,44,0.00,,,0.00,fowsr,2013-01-03 19:15:00,
2013-01-03 14:55:00,31.8,18.0,30.11,West,270,1.6,3.1,44,0.00,,,0.00,fowsr,2013-01-03 19:55:00,
2013-01-03 15:05:00,31.8,18.0,30.11,SW,225,2.2,3.8,44,0.00,,,0.00,fowsr,2013-01-03 20:05:00,
2013-01-03 15:10:00,31.6,18.2,30.11,SE,135,2.2,3.8,45,0.00,,,0.00,fowsr,2013-01-03 20:10:00,
2013-01-03 15:15:00,31.6,18.2,30.11,SW,225,1.6,3.1,45,0.00,,,0.00,fowsr,2013-01-03 20:15:00,
2013-01-03 15:20:00,31.6,17.9,30.11,West,270,3.1,3.8,44,0.00,,,0.00,fowsr,2013-01-03 20:20:00,
2013-01-03 15:25:00,31.6,17.9,30.11,SW,225,3.1,3.8,44,0.00,,,0.00,fowsr,2013-01-03 20:25:00,
2013-01-03 15:30:00,31.5,17.7,30.11,West,270,3.1,5.4,44,0.00,,,0.00,fowsr,2013-01-03 20:30:00,
2013-01-03 15:35:00,31.5,17.7,30.11,SW,225,2.2,3.8,44,0.00,,,0.00,fowsr,2013-01-03 20:35:00,
2013-01-03 15:40:00,31.5,17.7,30.11,West,270,1.6,2.2,44,0.00,,,0.00,fowsr,2013-01-03 20:40:00,
2013-01-03 15:45:00,31.5,17.7,30.11,West,270,2.2,3.1,44,0.00,,,0.00,fowsr,2013-01-03 20:45:00,
2013-01-03 15:50:00,31.5,18.1,30.12,SW,225,2.2,3.1,45,0.00,,,0.00,fowsr,2013-01-03 20:50:00,
2013-01-03 15:55:00,31.5,17.7,30.12,WSW,247,1.6,3.8,44,0.00,,,0.00,fowsr,2013-01-03 20:55:00,
2013-01-03 16:00:00,31.5,17.7,30.12,SW,225,2.2,3.1,44,0.00,,,0.00,fowsr,2013-01-03 21:00:00,
2013-01-03 16:05:00,31.5,17.7,30.12,West,270,2.2,3.1,44,0.00,,,0.00,fowsr,2013-01-03 21:05:00,
2013-01-03 16:10:00,31.3,17.9,30.12,SW,225,3.1,6.0,45,0.00,,,0.00,fowsr,2013-01-03 21:10:00,
2013-01-03 16:15:00,31.3,17.5,30.12,SW,225,2.2,4.5,44,0.00,,,0.00,fowsr,2013-01-03 21:15:00,
2013-01-03 16:20:00,31.1,17.7,30.12,SE,135,1.6,2.2,45,0.00,,,0.00,fowsr,2013-01-03 21:20:00,
2013-01-03 16:25:00,31.1,17.7,30.12,West,270,1.6,3.1,45,0.00,,,0.00,fowsr,2013-01-03 21:25:00,
2013-01-03 16:30:00,30.9,17.6,30.12,SW,225,0.0,0.7,45,0.00,,,0.00,fowsr,2013-01-03 21:30:00,
2013-01-03 16:35:00,30.9,17.6,30.13,SW,225,0.7,1.6,45,0.00,,,0.00,fowsr,2013-01-03 21:35:00,
2013-01-03 16:40:00,30.6,17.3,30.12,SW,225,1.6,3.1,45,0.00,,,0.00,fowsr,2013-01-03 21:40:00,
2013-01-03 16:45:00,30.6,17.3,30.12,West,270,0.7,1.6,45,0.00,,,0.00,fowsr,2013-01-03 21:45:00,
2013-01-03 16:50:00,30.4,17.4,30.12,SW,225,1.6,3.1,46,0.00,,,0.00,fowsr,2013-01-03 21:50:00,
2013-01-03 16:55:00,30.2,17.3,30.12,SW,225,1.6,2.2,46,0.00,,,0.00,fowsr,2013-01-03 21:55:00,
2013-01-03 17:00:00,30.2,17.3,30.13,SW,225,1.6,2.2,46,0.00,,,0.00,fowsr,2013-01-03 22:00:00,
2013-01-03 17:05:00,30.0,17.5,30.13,SW,225,0.7,1.6,47,0.00,,,0.00,fowsr,2013-01-03 22:05:00,
2013-01-03 17:10:00,29.8,17.3,30.12,South,180,0.7,2.2,47,0.00,,,0.00,fowsr,2013-01-03 22:10:00,
2013-01-03 17:15:00,29.8,17.3,30.12,SW,225,0.7,1.6,47,0.00,,,0.00,fowsr,2013-01-03 22:15:00,
2013-01-03 17:20:00,29.7,17.5,30.12,West,270,1.6,2.2,48,0.00,,,0.00,fowsr,2013-01-03 22:20:00,
2013-01-03 17:25:00,29.5,17.3,30.13,SW,225,0.7,1.6,48,0.00,,,0.00,fowsr,2013-01-03 22:25:00,
2013-01-03 17:30:00,29.5,17.3,30.13,SW,225,1.6,3.8,48,0.00,,,0.00,fowsr,2013-01-03 22:30:00,
2013-01-03 17:35:00,29.5,17.6,30.13,SW,225,0.7,1.6,49,0.00,,,0.00,fowsr,2013-01-03 22:35:00,
2013-01-03 17:40:00,29.3,17.5,30.13,WSW,247,1.6,2.2,49,0.00,,,0.00,fowsr,2013-01-03 22:40:00,
2013-01-03 17:45:00,29.3,17.5,30.13,West,270,1.6,2.2,49,0.00,,,0.00,fowsr,2013-01-03 22:45:00,
2013-01-03 17:50:00,29.3,17.8,30.14,SW,225,0.0,0.7,50,0.00,,,0.00,fowsr,2013-01-03 22:50:00,
2013-01-03 17:55:00,29.1,17.6,30.14,SW,225,1.6,2.2,50,0.00,,,0.00,fowsr,2013-01-03 22:55:00,
2013-01-03 18:00:00,29.1,17.6,30.14,SW,225,0.7,1.6,50,0.00,,,0.00,fowsr,2013-01-03 23:00:00,
2013-01-03 18:05:00,29.1,17.6,30.13,SW,225,0.7,2.2,50,0.00,,,0.00,fowsr,2013-01-03 23:05:00,
2013-01-03 18:10:00,28.9,17.8,30.14,SW,225,0.7,1.6,51,0.00,,,0.00,fowsr,2013-01-03 23:10:00,
2013-01-03 18:15:00,28.8,17.6,30.13,SW,225,0.7,2.2,51,0.00,,,0.00,fowsr,2013-01-03 23:15:00,
2013-01-03 18:20:00,28.8,17.9,30.13,SW,225,1.6,2.2,52,0.00,,,0.00,fowsr,2013-01-03 23:20:00,
2013-01-03 18:25:00,28.8,17.9,30.14,SW,225,0.7,1.6,52,0.00,,,0.00,fowsr,2013-01-03 23:25:00,
2013-01-03 18:30:00,28.8,17.9,30.14,SW,225,1.6,2.2,52,0.00,,,0.00,fowsr,2013-01-03 23:30:00,
2013-01-03 18:35:00,28.8,18.2,30.14,SW,225,0.7,2.2,53,0.00,,,0.00,fowsr,2013-01-03 23:35:00,
2013-01-03 18:40:00,28.8,18.2,30.14,West,270,2.2,4.5,53,0.00,,,0.00,fowsr,2013-01-03 23:40:00,
2013-01-03 18:45:00,28.8,18.2,30.14,South,180,1.6,3.8,53,0.00,,,0.00,fowsr,2013-01-03 23:45:00,
2013-01-03 18:50:00,28.8,18.5,30.14,SW,225,0.7,1.6,54,0.00,,,0.00,fowsr,2013-01-03 23:50:00,
2013-01-03 18:55:00,28.8,18.5,30.14,SW,225,0.7,1.6,54,0.00,,,0.00,fowsr,2013-01-03 23:55:00,
2013-01-03 19:00:00,28.8,18.5,30.14,SW,225,1.6,2.2,54,0.00,,,0.00,fowsr,2013-01-04 00:00:00,
2013-01-03 19:05:00,28.8,18.5,30.14,SW,225,0.7,1.6,54,0.00,,,0.00,fowsr,2013-01-04 00:05:00,
2013-01-03 19:10:00,28.6,18.3,30.14,SW,225,0.7,1.6,54,0.00,,,0.00,fowsr,2013-01-04 00:10:00,
2013-01-03 19:15:00,28.4,18.5,30.14,SW,225,0.7,1.6,55,0.00,,,0.00,fowsr,2013-01-04 00:15:00,
2013-01-03 19:20:00,28.4,18.5,30.14,SW,225,0.7,1.6,55,0.00,,,0.00,fowsr,2013-01-04 00:20:00,
2013-01-03 19:25:00,28.2,17.1,30.14,SW,225,0.7,1.6,51,0.00,,,0.00,fowsr,2013-01-04 00:25:00,
2013-01-03 19:30:00,28.2,17.1,30.14,SW,225,2.2,3.8,51,0.00,,,0.00,fowsr,2013-01-04 00:30:00,
2013-01-03 19:35:00,28.2,17.1,30.14,SW,225,2.2,4.5,51,0.00,,,0.00,fowsr,2013-01-04 00:35:00,
2013-01-03 19:40:00,28.0,16.9,30.13,SW,225,0.7,1.6,51,0.00,,,0.00,fowsr,2013-01-04 00:40:00,
2013-01-03 19:45:00,28.0,16.9,30.13,SSW,202,0.7,1.6,51,0.00,,,0.00,fowsr,2013-01-04 00:45:00,
2013-01-03 19:50:00,28.0,16.9,30.14,SW,225,0.7,1.6,51,0.00,,,0.00,fowsr,2013-01-04 00:50:00,
2013-01-03 19:55:00,27.9,17.1,30.13,SW,225,1.6,2.2,52,0.00,,,0.00,fowsr,2013-01-04 00:55:00,
2013-01-03 20:00:00,28.0,17.2,30.13,SW,225,0.7,1.6,52,0.00,,,0.00,fowsr,2013-01-04 01:00:00,
2013-01-03 20:05:00,27.9,17.1,30.13,SW,225,1.6,2.2,52,0.00,,,0.00,fowsr,2013-01-04 01:05:00,
2013-01-03 20:10:00,28.0,17.2,30.13,South,180,1.6,2.2,52,0.00,,,0.00,fowsr,2013-01-04 01:10:00,
2013-01-03 20:15:00,28.0,17.2,30.13,West,270,0.7,2.2,52,0.00,,,0.00,fowsr,2013-01-04 01:15:00,
2013-01-03 20:20:00,28.0,17.2,30.13,SW,225,0.7,1.6,52,0.00,,,0.00,fowsr,2013-01-04 01:20:00,
2013-01-03 20:25:00,27.9,17.1,30.13,SW,225,0.7,1.6,52,0.00,,,0.00,fowsr,2013-01-04 01:25:00,
2013-01-03 20:30:00,27.9,17.1,30.13,SW,225,1.6,2.2,52,0.00,,,0.00,fowsr,2013-01-04 01:30:00,
2013-01-03 20:35:00,27.7,16.9,30.13,SW,225,1.6,3.1,52,0.00,,,0.00,fowsr,2013-01-04 01:35:00,
2013-01-03 20:40:00,27.7,16.9,30.13,SW,225,0.7,1.6,52,0.00,,,0.00,fowsr,2013-01-04 01:40:00,
2013-01-03 20:45:00,27.7,17.2,30.13,SW,225,0.7,1.6,53,0.00,,,0.00,fowsr,2013-01-04 01:45:00,
2013-01-03 20:50:00,27.7,17.2,30.13,SW,225,0.7,1.6,53,0.00,,,0.00,fowsr,2013-01-04 01:50:00,
2013-01-03 20:55:00,27.7,17.2,30.13,SW,225,0.7,1.6,53,0.00,,,0.00,fowsr,2013-01-04 01:55:00,
2013-01-03 21:00:00,27.7,17.2,30.13,West,270,1.6,2.2,53,0.00,,,0.00,fowsr,2013-01-04 02:00:00,
2013-01-03 21:05:00,27.5,17.1,30.12,SW,225,0.7,1.6,53,0.00,,,0.00,fowsr,2013-01-04 02:05:00,
2013-01-03 21:10:00,27.5,17.1,30.12,SW,225,1.6,2.2,53,0.00,,,0.00,fowsr,2013-01-04 02:10:00,
2013-01-03 21:15:00,27.5,17.1,30.12,SW,225,0.7,1.6,53,0.00,,,0.00,fowsr,2013-01-04 02:15:00,
2013-01-03 21:20:00,27.5,17.1,30.12,SW,225,0.7,1.6,53,0.00,,,0.00,fowsr,2013-01-04 02:20:00,
2013-01-03 21:25:00,27.5,17.1,30.13,South,180,1.6,2.2,53,0.00,,,0.00,fowsr,2013-01-04 02:25:00,
2013-01-03 21:30:00,27.3,16.9,30.13,SW,225,0.7,1.6,53,0.00,,,0.00,fowsr,2013-01-04 02:30:00,
2013-01-03 21:35:00,27.3,16.9,30.13,SW,225,0.7,1.6,53,0.00,,,0.00,fowsr,2013-01-04 02:35:00,
2013-01-03 21:40:00,27.3,16.9,30.12,SW,225,0.7,1.6,53,0.00,,,0.00,fowsr,2013-01-04 02:40:00,
2013-01-03 21:45:00,27.1,16.7,30.13,West,270,0.7,2.2,53,0.00,,,0.00,fowsr,2013-01-04 02:45:00,
2013-01-03 21:50:00,27.1,17.0,30.13,West,270,0.7,1.6,54,0.00,,,0.00,fowsr,2013-01-04 02:50:00,
2013-01-03 21:55:00,27.1,17.0,30.13,SW,225,0.7,1.6,54,0.00,,,0.00,fowsr,2013-01-04 02:55:00,
2013-01-03 22:00:00,27.1,17.0,30.13,SW,225,0.7,1.6,54,0.00,,,0.00,fowsr,2013-01-04 03:00:00,
2013-01-03 22:05:00,27.0,16.8,30.13,SW,225,0.7,1.6,54,0.00,,,0.00,fowsr,2013-01-04 03:05:00,
2013-01-03 22:10:00,27.1,17.0,30.13,SW,225,0.7,1.6,54,0.00,,,0.00,fowsr,2013-01-04 03:10:00,
2013-01-03 22:15:00,27.1,17.0,30.13,SW,225,1.6,2.2,54,0.00,,,0.00,fowsr,2013-01-04 03:15:00,
2013-01-03 22:20:00,27.0,16.8,30.13,SW,225,1.6,2.2,54,0.00,,,0.00,fowsr,2013-01-04 03:20:00,
2013-01-03 22:25:00,27.0,16.8,30.13,SW,225,1.6,2.2,54,0.00,,,0.00,fowsr,2013-01-04 03:25:00,
2013-01-03 22:30:00,27.0,16.8,30.13,SW,225,0.7,1.6,54,0.00,,,0.00,fowsr,2013-01-04 03:30:00,
2013-01-03 22:35:00,27.0,16.8,30.13,SW,225,0.7,1.6,54,0.00,,,0.00,fowsr,2013-01-04 03:35:00,
2013-01-03 22:40:00,26.8,16.7,30.13,SW,225,0.7,1.6,54,0.00,,,0.00,fowsr,2013-01-04 03:40:00,
2013-01-03 22:45:00,27.0,16.8,30.13,SW,225,1.6,2.2,54,0.00,,,0.00,fowsr,2013-01-04 03:45:00,
2013-01-03 22:50:00,27.1,17.3,30.13,SW,225,0.7,3.1,55,0.00,,,0.00,fowsr,2013-01-04 03:50:00,
2013-01-03 22:55:00,27.3,17.5,30.13,SW,225,1.6,2.2,55,0.00,,,0.00,fowsr,2013-01-04 03:55:00,
2013-01-03 23:00:00,27.5,17.6,30.13,West,270,1.6,2.2,55,0.00,,,0.00,fowsr,2013-01-04 04:00:00,
2013-01-03 23:05:00,27.9,18.0,30.13,WSW,247,1.6,3.1,55,0.00,,,0.00,fowsr,2013-01-04 04:05:00,
2013-01-03 23:10:00,28.0,18.1,30.13,SW,225,0.7,2.2,55,0.00,,,0.00,fowsr,2013-01-04 04:10:00,
2013-01-03 23:15:00,28.2,18.3,30.13,SW,225,1.6,2.2,55,0.00,,,0.00,fowsr,2013-01-04 04:15:00,
2013-01-03 23:20:00,28.2,18.3,30.13,SW,225,1.6,2.2,55,0.00,,,0.00,fowsr,2013-01-04 04:20:00,
2013-01-03 23:25:00,28.6,19.5,30.13,South,180,1.6,3.1,58,0.00,,,0.00,fowsr,2013-01-04 04:25:00,
2013-01-03 23:30:00,28.8,19.7,30.13,SW,225,1.6,2.2,58,0.00,,,0.00,fowsr,2013-01-04 04:30:00,
2013-01-03 23:35:00,28.8,19.7,30.13,West,270,0.7,1.6,58,0.00,,,0.00,fowsr,2013-01-04 04:35:00,
2013-01-03 23:40:00,28.9,19.8,30.12,West,270,1.6,2.2,58,0.00,,,0.00,fowsr,2013-01-04 04:40:00,
2013-01-03 23:45:00,29.1,20.0,30.13,SW,225,2.2,3.1,58,0.00,,,0.00,fowsr,2013-01-04 04:45:00,
2013-01-03 23:50:00,29.1,20.0,30.13,West,270,0.7,2.2,58,0.00,,,0.00,fowsr,2013-01-04 04:50:00,
2013-01-03 23:55:00,29.3,20.2,30.12,West,270,0.7,2.2,58,0.00,,,0.00,fowsr,2013-01-04 04:55:00,